Sugar Grove Lake, Ohio
Current Conditions -  °F | °C
As of 4:24 PM on Saturday 25 Oct 2014 (Local Time) from KMNN Reporting Station
Haze Haze  
Wind Chill: 73°   Ceiling: Unl
Heat Index: 73°   Visibility: 3mi
Dew Point: 48°   Wind: 20mph
Humidity: 41%   Direction: 280°W
Pressure: 29.82"   Gusts: 28mph
Location:  40.712°N, 82.796°W
Report Text: KMNN 252024Z AUTO 28017G24KT 3SM HZ CLR 23/09 A2982 RMK AO2 T02280089 TSNO $
Loading
Personal Weather Stations






























Interactive Weather Map
Tropical Storm Tracking
New forecast layout! Learn more

10-Day Weather Forecast

Advertisements
Track Severe Weather on mobile